createdAt,value
2022-11-04T00:00:29.919Z,99999.28
2022-11-04T00:06:27.837Z,99972.28
2022-11-04T00:09:17.787Z,99958.34
2022-11-04T00:12:11.604Z,99957.03
2022-11-04T00:14:54.213Z,99943.94
2022-11-04T00:18:19.217Z,99947.38
2022-11-04T00:21:08.137Z,99929.16
2022-11-04T00:28:30.789Z,99894.34
2022-11-04T00:31:28.102Z,99896.28
2022-11-04T00:34:02.765Z,99897.97
2022-11-04T00:36:47.349Z,99899.72
2022-11-04T00:43:26.284Z,99877.06
2022-11-04T00:46:56.902Z,99873.41
2022-11-04T00:49:32.911Z,99860.47
2022-11-04T00:56:00.010Z,99855.41
2022-11-04T00:58:32.824Z,99847.44
2022-11-04T01:01:10.759Z,99844.84
2022-11-04T01:05:15.774Z,99833.47
2022-11-04T01:08:33.132Z,99833.50
2022-11-04T01:14:55.848Z,99824.56
2022-11-04T01:17:28.278Z,99811.47
2022-11-04T01:19:58.406Z,99807.97
2022-11-04T01:23:38.861Z,99810.41
2022-11-04T01:27:25.998Z,99797.00
2022-11-04T01:29:57.244Z,99779.00
2022-11-04T01:32:53.188Z,99779.72
2022-11-04T01:35:23.384Z,99778.00
2022-11-04T01:37:51.199Z,99763.09
2022-11-04T01:40:19.436Z,99759.72
2022-11-04T01:42:47.248Z,99750.81
2022-11-04T01:46:32.686Z,99748.63
2022-11-04T01:49:43.483Z,99743.03
2022-11-04T01:52:45.777Z,99743.41
2022-11-04T01:56:29.142Z,99737.72
2022-11-04T01:59:44.638Z,99724.06
2022-11-04T02:05:30.854Z,99710.22
2022-11-04T02:08:09.396Z,99703.47
2022-11-04T02:20:15.433Z,99665.88
2022-11-04T02:22:59.723Z,99640.56
2022-11-04T02:26:18.342Z,99646.22
2022-11-04T02:30:02.653Z,99639.97
2022-11-04T02:40:44.966Z,99620.75
2022-11-04T02:43:20.973Z,99614.78
2022-11-04T02:46:20.672Z,99610.09
2022-11-04T02:53:04.093Z,99598.03
2022-11-04T02:59:38.594Z,99580.91
2022-11-04T03:03:19.785Z,99572.41
2022-11-04T03:05:51.376Z,99555.16
2022-11-04T03:08:44.109Z,99540.44
2022-11-04T03:15:10.804Z,99521.13
2022-11-04T03:18:25.758Z,99531.66
2022-11-04T03:21:11.941Z,99506.41
2022-11-04T03:24:53.122Z,99510.41
2022-11-04T03:28:08.316Z,99493.84
2022-11-04T03:30:51.183Z,99494.19
2022-11-04T03:33:21.605Z,99496.63
2022-11-04T03:35:50.774Z,99500.78
2022-11-04T03:38:23.053Z,99497.00
2022-11-04T03:41:47.928Z,99492.63
2022-11-04T03:44:21.391Z,99496.56
2022-11-04T03:47:06.792Z,99486.91
2022-11-04T03:49:34.912Z,99485.59
2022-11-04T03:56:27.801Z,99479.66
2022-11-04T03:59:32.202Z,99484.09
2022-11-04T04:02:37.827Z,99488.50
2022-11-04T04:05:20.875Z,99475.84
2022-11-04T04:11:29.180Z,99484.81
2022-11-04T04:14:09.339Z,99481.28
2022-11-04T04:16:54.758Z,99478.44
2022-11-04T04:20:16.862Z,99479.28
2022-11-04T04:22:50.821Z,99461.44
2022-11-04T04:25:38.727Z,99458.81
2022-11-04T04:28:06.904Z,99473.56
2022-11-04T04:31:14.337Z,99473.47
2022-11-04T04:33:59.490Z,99451.59
2022-11-04T04:37:42.679Z,99445.81
2022-11-04T04:42:51.996Z,99454.06
2022-11-04T04:45:03.596Z,99454.06
2022-11-04T04:47:42.486Z,99432.84
2022-11-04T04:50:17.991Z,99444.75
2022-11-04T04:52:48.996Z,99433.41
2022-11-04T04:55:37.532Z,99426.09
2022-11-04T04:58:08.737Z,99433.53
2022-11-04T05:00:49.986Z,99436.06
2022-11-04T05:03:57.008Z,99418.34
2022-11-04T05:07:17.226Z,99441.09
2022-11-04T05:10:54.416Z,99425.69
2022-11-04T05:13:38.345Z,99417.03
2022-11-04T05:16:22.921Z,99410.97
2022-11-04T05:18:53.884Z,99411.97
2022-11-04T05:22:38.557Z,99414.16
2022-11-04T05:25:15.756Z,99425.63
2022-11-04T05:27:43.440Z,99416.75
2022-11-04T05:30:19.084Z,99410.97
2022-11-04T05:32:46.679Z,99407.03
2022-11-04T05:35:14.187Z,99417.75
2022-11-04T05:37:41.523Z,99414.09
2022-11-04T05:40:09.351Z,99402.31
2022-11-04T05:42:36.971Z,99399.31
2022-11-04T05:45:05.627Z,99393.19
2022-11-04T05:47:33.099Z,99388.44
2022-11-04T05:50:00.778Z,99385.88
2022-11-04T05:52:28.249Z,99392.88
2022-11-04T05:54:55.796Z,99400.25
2022-11-04T05:57:24.020Z,99400.44
2022-11-04T05:59:51.542Z,99403.97
2022-11-04T06:02:19.109Z,99400.88
2022-11-04T06:04:46.668Z,99389.84
2022-11-04T06:07:14.223Z,99401.63
2022-11-04T06:09:41.833Z,99394.66
2022-11-04T06:12:17.457Z,99402.66
2022-11-04T06:14:48.293Z,99403.97
2022-11-04T06:17:18.288Z,99415.69
2022-11-04T06:19:46.349Z,99410.16
2022-11-04T06:22:16.326Z,99416.06
2022-11-04T06:24:44.461Z,99406.47
2022-11-04T06:27:12.922Z,99413.06
2022-11-04T06:29:41.418Z,99413.75
2022-11-04T06:32:14.898Z,99401.00
2022-11-04T06:34:42.396Z,99403.03
2022-11-04T06:37:10.156Z,99412.09
2022-11-04T06:39:37.807Z,99421.41
2022-11-04T06:42:05.914Z,99436.84
2022-11-04T06:44:37.238Z,99439.88
2022-11-04T06:47:04.856Z,99450.91
2022-11-04T06:49:32.396Z,99448.47
2022-11-04T06:52:01.341Z,99446.69
2022-11-04T06:54:28.923Z,99461.44
2022-11-04T06:56:56.532Z,99472.75
2022-11-04T06:59:24.293Z,99484.59
2022-11-04T07:01:52.453Z,99484.34
2022-11-04T07:04:20.218Z,99489.41
2022-11-04T07:06:47.875Z,99486.22
2022-11-04T07:09:16.056Z,99490.75
2022-11-04T07:11:45.223Z,99492.47
2022-11-04T07:14:13.861Z,99489.78
2022-11-04T07:16:41.397Z,99498.72
2022-11-04T07:19:09.057Z,99499.06
2022-11-04T07:21:37.188Z,99516.47
2022-11-04T07:24:06.413Z,99527.09
2022-11-04T07:26:33.929Z,99552.91
2022-11-04T07:29:01.575Z,99571.59
2022-11-04T07:31:29.522Z,99579.50
2022-11-04T07:33:57.485Z,99574.66
2022-11-04T07:36:25.172Z,99576.97
2022-11-04T07:38:52.691Z,99582.44
2022-11-04T07:41:20.643Z,99583.38
2022-11-04T07:43:50.128Z,99590.31
2022-11-04T07:46:19.468Z,99563.50
2022-11-04T07:48:47.681Z,99550.91
2022-11-04T07:51:17.771Z,99567.16
2022-11-04T07:53:45.209Z,99566.69
2022-11-04T07:56:13.560Z,99558.03
2022-11-04T07:58:41.659Z,99523.56
2022-11-04T08:01:12.935Z,99483.16
2022-11-04T08:03:40.800Z,99478.81
2022-11-04T08:06:10.606Z,99456.81
2022-11-04T08:08:38.471Z,99461.78
2022-11-04T08:11:19.920Z,99486.53
2022-11-04T08:13:47.868Z,99488.63
2022-11-04T08:16:18.396Z,99479.50
2022-11-04T08:18:47.372Z,99501.31
2022-11-04T08:21:15.899Z,99502.03
2022-11-04T08:23:44.003Z,99496.38
2022-11-04T08:26:14.763Z,99505.50
2022-11-04T08:28:42.545Z,99524.22
2022-11-04T08:31:30.915Z,99537.00
2022-11-04T08:33:58.363Z,99528.66
2022-11-04T08:36:31.290Z,99529.88
2022-11-04T08:38:59.456Z,99520.13
2022-11-04T08:41:29.790Z,99525.91
2022-11-04T08:44:00.943Z,99532.91
2022-11-04T08:46:29.735Z,99538.44
2022-11-04T08:48:57.244Z,99527.66
2022-11-04T08:51:27.196Z,99535.47
2022-11-04T08:53:55.338Z,99520.00
2022-11-04T08:56:29.028Z,99529.31
2022-11-04T08:59:15.152Z,99533.25
2022-11-04T09:01:44.039Z,99533.44
2022-11-04T09:04:12.776Z,99531.66
2022-11-04T09:06:43.198Z,99523.88
2022-11-04T09:09:13.843Z,99538.97
2022-11-04T09:11:43.504Z,99541.63
2022-11-04T09:14:11.631Z,99538.94
2022-11-04T09:16:40.453Z,99537.53
2022-11-04T09:19:08.217Z,99534.69
2022-11-04T09:21:35.961Z,99526.31
2022-11-04T09:24:03.570Z,99515.34
2022-11-04T09:26:31.512Z,99525.88
2022-11-04T09:28:59.752Z,99520.88
2022-11-04T09:31:29.519Z,99522.75
2022-11-04T09:33:57.563Z,99521.53
2022-11-04T09:36:25.808Z,99523.88
2022-11-04T09:38:53.443Z,99532.31
2022-11-04T09:41:38.717Z,99524.22
2022-11-04T09:44:18.965Z,99532.31
2022-11-04T09:46:49.423Z,99533.16
2022-11-04T09:49:17.147Z,99539.53
2022-11-04T09:51:54.169Z,99535.09
2022-11-04T09:54:47.016Z,99535.13
2022-11-04T09:57:19.286Z,99528.66
2022-11-04T09:59:48.126Z,99543.75
2022-11-04T10:02:38.715Z,99542.06
2022-11-04T10:05:18.349Z,99534.41
2022-11-04T10:08:19.834Z,99543.09
2022-11-04T10:11:19.355Z,99532.81
2022-11-04T10:14:27.056Z,99527.38
2022-11-04T10:17:14.611Z,99533.75
2022-11-04T10:20:12.302Z,99536.69
2022-11-04T10:22:58.029Z,99530.72
2022-11-04T10:25:32.250Z,99533.25
2022-11-04T10:27:59.938Z,99526.91
2022-11-04T10:30:29.555Z,99528.47
2022-11-04T10:33:02.684Z,99541.88
2022-11-04T10:35:48.394Z,99531.50
2022-11-04T10:38:21.586Z,99540.97
2022-11-04T10:40:52.182Z,99529.88
2022-11-04T10:43:39.571Z,99527.47
2022-11-04T10:46:38.722Z,99527.75
2022-11-04T10:49:50.429Z,99532.72
2022-11-04T10:52:32.166Z,99537.63
2022-11-04T10:54:59.746Z,99529.63
2022-11-04T10:57:28.520Z,99543.31
2022-11-04T11:00:00.277Z,99537.50
2022-11-04T11:02:36.590Z,99537.75
2022-11-04T11:05:22.598Z,99541.19
2022-11-04T11:07:53.004Z,99536.66
2022-11-04T11:10:25.040Z,99547.19
2022-11-04T11:13:07.626Z,99540.13
2022-11-04T11:15:41.307Z,99525.03
2022-11-04T11:18:15.314Z,99530.59
2022-11-04T11:20:49.033Z,99526.50
2022-11-04T11:23:47.255Z,99528.03
2022-11-04T11:26:19.271Z,99522.78
2022-11-04T11:28:59.004Z,99517.03
2022-11-04T11:31:36.231Z,99520.81
2022-11-04T11:34:15.681Z,99514.19
2022-11-04T11:36:44.795Z,99504.06
2022-11-04T11:39:12.321Z,99514.28
2022-11-04T11:42:13.163Z,99509.28
2022-11-04T11:45:00.141Z,99505.63
2022-11-04T11:47:28.287Z,99506.47
2022-11-04T11:50:13.978Z,99506.00
2022-11-04T11:52:42.531Z,99512.31
2022-11-04T11:55:18.392Z,99511.53
2022-11-04T12:01:21.948Z,99512.84
2022-11-04T12:09:40.130Z,99517.03
2022-11-04T12:12:07.510Z,99523.50
2022-11-04T12:14:46.109Z,99519.44
2022-11-04T12:17:21.755Z,99513.97
2022-11-04T12:20:08.830Z,99512.00
2022-11-04T12:22:44.785Z,99507.16
2022-11-04T12:25:20.115Z,99515.38
2022-11-04T12:27:54.912Z,99517.44
2022-11-04T12:30:32.409Z,99522.28
2022-11-04T12:33:04.117Z,99523.16
2022-11-04T12:35:50.932Z,99518.38
2022-11-04T12:38:24.442Z,99525.41
2022-11-04T12:44:27.331Z,99532.22
2022-11-04T12:47:06.411Z,99535.56
2022-11-04T12:49:54.868Z,99525.09
2022-11-04T12:52:51.802Z,99523.50
2022-11-04T12:55:44.838Z,99517.41
2022-11-04T12:58:33.601Z,99529.19
2022-11-04T13:01:15.141Z,99516.97
2022-11-04T13:03:52.465Z,99516.69
2022-11-04T13:06:26.990Z,99510.34
2022-11-04T13:09:02.758Z,99512.50
2022-11-04T13:11:33.655Z,99509.84
2022-11-04T13:14:19.196Z,99514.09
2022-11-04T13:16:51.766Z,99512.59
2022-11-04T13:19:31.192Z,99512.09
2022-11-04T13:22:03.487Z,99511.28
2022-11-04T13:24:35.307Z,99506.47
2022-11-04T13:27:12.183Z,99499.09
2022-11-04T13:29:40.628Z,99498.94
2022-11-04T13:32:52.224Z,99491.91
2022-11-04T13:35:32.007Z,99483.22
2022-11-04T13:38:12.629Z,99477.28
2022-11-04T13:41:08.853Z,99475.34
2022-11-04T13:43:41.964Z,99477.19
2022-11-04T13:46:24.015Z,99474.75
2022-11-04T13:49:02.395Z,99479.00
2022-11-04T13:52:54.250Z,99479.53
2022-11-04T13:55:22.525Z,99481.38
2022-11-04T13:57:58.157Z,99492.59
2022-11-04T14:00:31.282Z,99490.72
2022-11-04T14:03:22.275Z,99489.78
2022-11-04T14:06:02.642Z,99483.00
2022-11-04T14:08:30.884Z,99491.78
2022-11-04T14:11:04.932Z,99489.09
2022-11-04T14:13:37.352Z,99488.22
2022-11-04T14:16:13.771Z,99493.13
2022-11-04T14:18:44.089Z,99484.97
2022-11-04T14:21:12.548Z,99483.44
2022-11-04T14:23:43.519Z,99480.44
2022-11-04T14:26:14.272Z,99474.69
2022-11-04T14:28:45.197Z,99472.81
2022-11-04T14:31:22.952Z,99470.66
2022-11-04T14:33:54.315Z,99464.66
2022-11-04T14:36:21.808Z,99462.28
2022-11-04T14:39:10.722Z,99464.72
2022-11-04T14:41:41.179Z,99466.41
2022-11-04T14:44:18.630Z,99461.84
2022-11-04T14:46:51.849Z,99460.50
2022-11-04T14:49:25.040Z,99454.91
2022-11-04T14:51:54.532Z,99450.63
2022-11-04T14:54:26.455Z,99454.91
2022-11-04T14:57:08.355Z,99445.00
2022-11-04T14:59:35.746Z,99444.66
2022-11-04T15:02:03.255Z,99443.00
2022-11-04T15:04:32.764Z,99442.03
2022-11-04T15:07:02.603Z,99441.81
2022-11-04T15:09:39.623Z,99442.47
2022-11-04T15:12:31.414Z,99436.63
2022-11-04T15:15:00.020Z,99441.75
2022-11-04T15:17:31.086Z,99436.50
2022-11-04T15:20:02.288Z,99434.44
2022-11-04T15:22:33.375Z,99430.44
2022-11-04T15:25:05.870Z,99435.84
2022-11-04T15:27:34.799Z,99426.69
2022-11-04T15:30:04.443Z,99429.44
2022-11-04T15:32:32.239Z,99424.53
2022-11-04T15:35:00.086Z,99419.09
2022-11-04T15:37:29.343Z,99421.22
2022-11-04T15:39:58.232Z,99416.44
2022-11-04T15:42:40.581Z,99419.25
2022-11-04T15:45:26.854Z,99421.47
2022-11-04T15:48:21.897Z,99422.03
2022-11-04T15:51:16.101Z,99427.78
2022-11-04T15:54:03.278Z,99430.44
2022-11-04T15:56:34.050Z,99430.13
2022-11-04T15:59:02.985Z,99427.59
2022-11-04T16:01:32.796Z,99429.91
2022-11-04T16:04:02.010Z,99428.84
2022-11-04T16:06:39.466Z,99431.16
2022-11-04T16:09:19.938Z,99431.56
2022-11-04T16:12:07.839Z,99441.19
2022-11-04T16:14:35.469Z,99444.81
2022-11-04T16:17:03.865Z,99441.38
2022-11-04T16:19:32.411Z,99443.41
2022-11-04T16:22:05.148Z,99442.91
2022-11-04T16:24:35.517Z,99446.53
2022-11-04T16:27:03.768Z,99453.28
2022-11-04T16:29:34.319Z,99453.75
2022-11-04T16:32:13.223Z,99447.22
2022-11-04T16:34:40.698Z,99462.72
2022-11-04T16:37:08.093Z,99457.72
2022-11-04T16:39:35.564Z,99456.72
2022-11-04T16:42:06.591Z,99458.63
2022-11-04T16:44:34.188Z,99468.38
2022-11-04T16:47:02.467Z,99468.38
2022-11-04T16:49:33.430Z,99465.34
2022-11-04T16:52:03.417Z,99479.50
2022-11-04T16:54:30.948Z,99474.47
2022-11-04T16:57:00.277Z,99474.25
2022-11-04T16:59:27.820Z,99471.69
2022-11-04T17:01:55.657Z,99473.06
2022-11-04T17:04:23.398Z,99485.16
2022-11-04T17:06:50.886Z,99490.00
2022-11-04T17:09:23.248Z,99495.50
2022-11-04T17:11:50.714Z,99499.03
2022-11-04T17:14:18.280Z,99496.53
2022-11-04T17:16:45.644Z,99507.91
2022-11-04T17:19:15.618Z,99508.41
2022-11-04T17:21:45.192Z,99514.72
2022-11-04T17:24:14.287Z,99521.81
2022-11-04T17:26:41.776Z,99535.81
2022-11-04T17:29:15.901Z,99535.81
2022-11-04T17:31:44.534Z,99541.41
2022-11-04T17:34:11.910Z,99551.97
2022-11-04T17:36:39.297Z,99549.53
2022-11-04T17:39:06.847Z,99549.44
2022-11-04T17:41:52.566Z,99550.41
2022-11-04T17:44:21.360Z,99553.81
2022-11-04T17:46:48.954Z,99568.84
2022-11-04T17:49:16.316Z,99574.38
2022-11-04T17:51:46.493Z,99574.41
2022-11-04T17:54:14.670Z,99576.00
2022-11-04T17:56:42.525Z,99579.81
2022-11-04T17:59:12.439Z,99586.53
2022-11-04T18:01:42.868Z,99589.03
2022-11-04T18:04:23.106Z,99595.34
2022-11-04T18:06:51.133Z,99600.13
2022-11-04T18:09:19.794Z,99602.59
2022-11-04T18:12:05.904Z,99602.09
2022-11-04T18:14:34.085Z,99608.22
2022-11-04T18:17:01.575Z,99603.75
2022-11-04T18:19:29.634Z,99613.41
2022-11-04T18:21:57.219Z,99611.31
2022-11-04T18:24:24.913Z,99619.25
2022-11-04T18:26:52.971Z,99617.50
2022-11-04T18:29:21.146Z,99629.78
2022-11-04T18:31:49.808Z,99626.41
2022-11-04T18:34:19.730Z,99628.56
2022-11-04T18:36:48.538Z,99642.00
2022-11-04T18:39:18.131Z,99644.22
2022-11-04T18:41:46.290Z,99655.34
2022-11-04T18:44:16.824Z,99654.41
2022-11-04T18:46:45.023Z,99657.69
2022-11-04T18:49:13.521Z,99658.25
2022-11-04T18:51:41.396Z,99645.88
2022-11-04T18:54:10.685Z,99662.34
2022-11-04T18:56:38.354Z,99663.81
2022-11-04T18:59:09.670Z,99659.56
2022-11-04T19:01:38.004Z,99656.16
2022-11-04T19:04:09.534Z,99669.81
2022-11-04T19:06:41.744Z,99662.38
2022-11-04T19:09:44.786Z,99660.94
2022-11-04T19:12:23.994Z,99662.78
2022-11-04T19:14:52.306Z,99663.78
2022-11-04T19:17:20.235Z,99673.41
2022-11-04T19:19:47.803Z,99677.69
2022-11-04T19:22:15.327Z,99665.00
2022-11-04T19:24:42.999Z,99666.59
2022-11-04T19:27:10.598Z,99670.56
2022-11-04T19:29:38.348Z,99666.59
2022-11-04T19:32:11.061Z,99675.59
2022-11-04T19:34:40.661Z,99677.81
2022-11-04T19:37:08.248Z,99674.81
2022-11-04T19:39:35.786Z,99677.53
2022-11-04T19:42:22.140Z,99681.13
2022-11-04T19:44:49.797Z,99694.34
2022-11-04T19:47:17.409Z,99700.22
2022-11-04T19:49:44.991Z,99692.66
2022-11-04T19:52:12.665Z,99701.19
2022-11-04T19:54:40.203Z,99709.03
2022-11-04T19:57:07.743Z,99693.34
2022-11-04T19:59:35.286Z,99716.41
2022-11-04T20:02:02.905Z,99727.00
2022-11-04T20:04:30.532Z,99730.56
2022-11-04T20:06:58.073Z,99723.44
2022-11-04T20:09:26.167Z,99723.13
2022-11-04T20:12:22.595Z,99729.06
2022-11-04T20:14:50.021Z,99739.13
2022-11-04T20:17:17.500Z,99734.44
2022-11-04T20:19:45.041Z,99723.31
2022-11-04T20:22:12.546Z,99730.41
2022-11-04T20:24:40.077Z,99722.44
2022-11-04T20:27:07.871Z,99721.84
2022-11-04T20:29:35.370Z,99719.22
2022-11-04T20:32:02.940Z,99725.59
2022-11-04T20:34:32.921Z,99725.09
2022-11-04T20:37:00.937Z,99724.63
2022-11-04T20:39:28.519Z,99729.00
2022-11-04T20:41:56.342Z,99725.69
2022-11-04T20:44:25.140Z,99735.81
2022-11-04T20:46:53.863Z,99741.19
2022-11-04T20:49:22.418Z,99732.47
2022-11-04T20:51:54.945Z,99740.53
2022-11-04T20:54:23.709Z,99739.13
2022-11-04T20:56:51.512Z,99753.03
2022-11-04T20:59:19.577Z,99744.53
2022-11-04T21:01:48.820Z,99753.94
2022-11-04T21:04:19.419Z,99766.06
2022-11-04T21:06:48.695Z,99764.44
2022-11-04T21:09:21.633Z,99771.88
2022-11-04T21:11:50.334Z,99779.22
2022-11-04T21:14:19.644Z,99779.44
2022-11-04T21:16:48.062Z,99770.56
2022-11-04T21:19:16.293Z,99768.59
2022-11-04T21:21:44.903Z,99780.81
2022-11-04T21:24:14.552Z,99775.50
2022-11-04T21:26:43.103Z,99789.06
2022-11-04T21:29:14.455Z,99787.50
2022-11-04T21:31:42.966Z,99776.91
2022-11-04T21:34:11.466Z,99796.38
2022-11-04T21:36:39.673Z,99801.75
2022-11-04T21:39:07.724Z,99819.94
2022-11-04T21:41:37.391Z,99820.91
2022-11-04T21:44:08.458Z,99818.31
2022-11-04T21:46:36.231Z,99817.41
2022-11-04T21:49:04.183Z,99814.25
2022-11-04T21:51:33.647Z,99815.16
2022-11-04T21:54:01.125Z,99819.41
2022-11-04T21:56:32.185Z,99817.84
2022-11-04T21:58:59.864Z,99811.97
2022-11-04T22:01:28.818Z,99814.88
2022-11-04T22:04:01.478Z,99818.31
2022-11-04T22:06:34.131Z,99820.69
2022-11-04T22:09:05.296Z,99823.34
2022-11-04T22:11:36.619Z,99824.41
2022-11-04T22:14:06.105Z,99820.31
2022-11-04T22:16:36.100Z,99816.94
2022-11-04T22:19:05.478Z,99809.16
2022-11-04T22:21:33.867Z,99811.16
2022-11-04T22:24:01.829Z,99813.34
2022-11-04T22:26:31.858Z,99812.63
2022-11-04T22:28:59.842Z,99813.47
2022-11-04T22:31:30.026Z,99806.84
2022-11-04T22:33:58.232Z,99802.56
2022-11-04T22:36:26.147Z,99797.91
2022-11-04T22:38:53.928Z,99812.28
2022-11-04T22:41:32.541Z,99809.28
2022-11-04T22:44:00.228Z,99811.13
2022-11-04T22:46:30.682Z,99811.72
2022-11-04T22:48:59.855Z,99814.28
2022-11-04T22:51:28.102Z,99812.66
2022-11-04T22:53:59.103Z,99816.25
2022-11-04T22:56:30.677Z,99827.44
2022-11-04T22:59:00.493Z,99833.03
2022-11-04T23:01:28.246Z,99838.03
2022-11-04T23:03:55.871Z,99841.75
2022-11-04T23:06:25.068Z,99837.44
2022-11-04T23:08:59.568Z,99832.09
2022-11-04T23:11:47.325Z,99842.19
2022-11-04T23:14:35.770Z,99840.28
2022-11-04T23:17:32.308Z,99845.53
2022-11-04T23:19:59.656Z,99856.22
2022-11-04T23:22:48.247Z,99859.13
2022-11-04T23:25:15.848Z,99861.53
2022-11-04T23:28:13.237Z,99863.13
2022-11-04T23:30:51.913Z,99864.00
2022-11-04T23:33:39.634Z,99864.13
2022-11-04T23:36:26.110Z,99852.84
2022-11-04T23:38:53.681Z,99862.50
2022-11-04T23:41:39.242Z,99860.44
2022-11-04T23:44:26.600Z,99864.13
2022-11-04T23:47:12.478Z,99872.16
2022-11-04T23:49:58.176Z,99881.84
2022-11-04T23:52:44.095Z,99885.94
2022-11-04T23:55:30.239Z,99886.88
2022-11-04T23:58:15.938Z,99894.06
